createdAt,value
2023-04-02T00:00:31.000Z,1346.0
2023-04-02T00:01:32.000Z,1346.0
2023-04-02T00:02:31.000Z,1392.0
2023-04-02T00:03:31.000Z,1339.0
2023-04-02T00:04:32.000Z,1311.0
2023-04-02T00:05:31.000Z,1313.0
2023-04-02T00:06:32.000Z,1336.0
2023-04-02T00:07:32.000Z,1308.0
2023-04-02T00:08:31.000Z,1215.0
2023-04-02T00:09:32.000Z,1230.0
2023-04-02T00:10:31.000Z,1319.0
2023-04-02T00:11:31.000Z,1307.0
2023-04-02T00:12:32.000Z,1222.0
2023-04-02T00:13:31.000Z,1136.0
2023-04-02T00:14:32.000Z,1208.0
2023-04-02T00:15:31.000Z,1139.0
2023-04-02T00:16:31.000Z,1090.0
2023-04-02T00:17:32.000Z,1222.0
2023-04-02T00:18:31.000Z,1238.0
2023-04-02T00:19:32.000Z,1287.0
2023-04-02T00:20:32.000Z,1303.0
2023-04-02T00:21:31.000Z,1215.0
2023-04-02T00:22:32.000Z,1230.0
2023-04-02T00:23:31.000Z,1261.0
2023-04-02T00:24:31.000Z,1304.0
2023-04-02T00:25:32.000Z,1273.0
2023-04-02T00:26:31.000Z,1236.0
2023-04-02T00:27:32.000Z,1264.0
2023-04-02T00:28:31.000Z,1284.0
2023-04-02T00:29:31.000Z,1260.0
2023-04-02T00:30:32.000Z,1251.0
2023-04-02T00:31:31.000Z,1267.0
2023-04-02T00:32:32.000Z,1301.0
2023-04-02T00:33:32.000Z,1242.0
2023-04-02T00:34:31.000Z,1267.0
2023-04-02T00:35:32.000Z,1324.0
2023-04-02T00:36:31.000Z,1280.0
2023-04-02T00:37:31.000Z,1244.0
2023-04-02T00:38:32.000Z,1126.0
2023-04-02T00:39:31.000Z,1152.0
2023-04-02T00:40:32.000Z,1183.0
2023-04-02T00:41:31.000Z,1216.0
2023-04-02T00:42:31.000Z,1212.0
2023-04-02T00:43:32.000Z,1235.0
2023-04-02T00:44:32.000Z,1181.0
2023-04-02T00:45:31.000Z,1175.0
2023-04-02T00:46:32.000Z,1241.0
2023-04-02T00:47:31.000Z,1171.0
2023-04-02T00:48:31.000Z,1250.0
2023-04-02T00:49:32.000Z,1284.0
2023-04-02T00:50:31.000Z,1292.0
2023-04-02T00:51:32.000Z,1345.0
2023-04-02T00:52:31.000Z,1345.0
2023-04-02T00:53:31.000Z,1337.0
2023-04-02T00:54:32.000Z,1293.0
2023-04-02T00:55:31.000Z,1215.0
2023-04-02T00:56:32.000Z,1128.0
2023-04-02T00:58:31.000Z,1254.0
2023-04-02T00:59:32.000Z,1372.0
2023-04-02T01:00:31.000Z,1426.0
2023-04-02T01:01:31.000Z,1431.0
2023-04-02T01:02:32.000Z,1457.0
2023-04-02T01:03:31.000Z,1356.0
2023-04-02T01:04:32.000Z,1338.0
2023-04-02T01:05:32.000Z,1355.0
2023-04-02T01:06:31.000Z,1357.0
2023-04-02T01:07:32.000Z,1371.0
2023-04-02T01:08:31.000Z,1332.0
2023-04-02T01:09:32.000Z,1268.0
2023-04-02T01:10:32.000Z,1376.0
2023-04-02T01:11:31.000Z,1260.0
2023-04-02T01:12:32.000Z,1125.0
2023-04-02T01:13:31.000Z,1211.0
2023-04-02T01:14:31.000Z,1280.0
2023-04-02T01:15:32.000Z,1262.0
2023-04-02T01:16:31.000Z,1304.0
2023-04-02T01:17:32.000Z,1391.0
2023-04-02T01:18:32.000Z,1359.0
2023-04-02T01:19:31.000Z,1475.0
2023-04-02T01:20:32.000Z,1481.0
2023-04-02T01:21:31.000Z,1499.0
2023-04-02T01:22:32.000Z,1516.0
2023-04-02T01:23:32.000Z,1501.0
2023-04-02T01:24:31.000Z,1511.0
2023-04-02T01:25:32.000Z,1440.0
2023-04-02T01:26:31.000Z,1553.0
2023-04-02T01:27:31.000Z,1326.0
2023-04-02T01:28:32.000Z,1378.0
2023-04-02T01:29:31.000Z,1441.0
2023-04-02T01:30:32.000Z,1483.0
2023-04-02T01:31:32.000Z,1441.0
2023-04-02T01:32:31.000Z,1326.0
2023-04-02T01:33:32.000Z,1375.0
2023-04-02T01:34:31.000Z,1403.0
2023-04-02T01:35:31.000Z,1322.0
2023-04-02T01:36:32.000Z,1299.0
2023-04-02T01:37:31.000Z,1300.0
2023-04-02T01:38:32.000Z,1252.0
2023-04-02T01:39:31.000Z,1339.0
2023-04-02T01:40:31.000Z,1435.0
2023-04-02T01:41:32.000Z,1449.0
2023-04-02T01:42:31.000Z,1520.0
2023-04-02T01:43:31.000Z,1372.0
2023-04-02T01:44:32.000Z,1421.0
2023-04-02T01:45:31.000Z,1395.0
2023-04-02T01:46:32.000Z,1416.0
2023-04-02T01:47:32.000Z,1441.0
2023-04-02T01:48:31.000Z,1525.0
2023-04-02T01:49:32.000Z,1537.0
2023-04-02T01:50:31.000Z,1504.0
2023-04-02T01:51:31.000Z,1531.0
2023-04-02T01:52:32.000Z,1563.0
2023-04-02T01:53:31.000Z,1572.0
2023-04-02T01:54:32.000Z,1550.0
2023-04-02T01:55:32.000Z,1555.0
2023-04-02T01:56:31.000Z,1538.0
2023-04-02T01:57:32.000Z,1508.0
2023-04-02T01:58:31.000Z,1527.0
2023-04-02T01:59:32.000Z,1470.0
2023-04-02T02:00:32.000Z,1446.0
2023-04-02T02:01:31.000Z,1427.0
2023-04-02T02:02:32.000Z,1524.0
2023-04-02T02:03:31.000Z,1409.0
2023-04-02T02:04:31.000Z,1421.0
2023-04-02T02:05:32.000Z,1448.0
2023-04-02T02:06:31.000Z,1453.0
2023-04-02T02:07:32.000Z,1501.0
2023-04-02T02:08:32.000Z,1524.0
2023-04-02T02:09:31.000Z,1565.0
2023-04-02T02:10:32.000Z,1527.0
2023-04-02T02:11:31.000Z,1554.0
2023-04-02T02:12:31.000Z,1559.0
2023-04-02T02:13:32.000Z,1548.0
2023-04-02T02:14:31.000Z,1507.0
2023-04-02T02:15:32.000Z,1539.0
2023-04-02T02:16:31.000Z,1596.0
2023-04-02T02:17:31.000Z,1523.0
2023-04-02T02:18:32.000Z,1456.0
2023-04-02T02:19:31.000Z,1498.0
2023-04-02T02:20:32.000Z,1483.0
2023-04-02T02:21:32.000Z,1435.0
2023-04-02T02:22:31.000Z,1309.0
2023-04-02T02:23:32.000Z,1326.0
2023-04-02T02:24:31.000Z,1444.0
2023-04-02T02:25:31.000Z,1451.0
2023-04-02T02:26:32.000Z,1471.0
2023-04-02T02:27:31.000Z,1484.0
2023-04-02T02:28:32.000Z,1487.0
2023-04-02T02:29:31.000Z,1506.0
2023-04-02T02:30:31.000Z,1470.0
2023-04-02T02:31:32.000Z,1514.0
2023-04-02T02:32:31.000Z,1486.0
2023-04-02T02:33:32.000Z,1540.0
2023-04-02T02:34:32.000Z,1513.0
2023-04-02T02:35:31.000Z,1382.0
2023-04-02T02:36:32.000Z,1348.0
2023-04-02T02:37:31.000Z,1360.0
2023-04-02T02:38:31.000Z,1365.0
2023-04-02T02:39:32.000Z,1408.0
2023-04-02T02:40:31.000Z,1333.0
2023-04-02T02:41:32.000Z,1446.0
2023-04-02T02:42:31.000Z,1567.0
2023-04-02T02:43:31.000Z,1587.0
2023-04-02T02:44:32.000Z,1546.0
2023-04-02T02:45:31.000Z,1509.0
2023-04-02T02:46:31.000Z,1522.0
2023-04-02T02:47:32.000Z,1468.0
2023-04-02T02:48:31.000Z,1548.0
2023-04-02T02:49:32.000Z,1500.0
2023-04-02T02:50:32.000Z,1536.0
2023-04-02T02:51:31.000Z,1481.0
2023-04-02T02:52:32.000Z,1376.0
2023-04-02T02:53:31.000Z,1328.0
2023-04-02T02:54:31.000Z,1389.0
2023-04-02T02:55:32.000Z,1471.0
2023-04-02T02:56:31.000Z,1485.0
2023-04-02T02:57:32.000Z,1436.0
2023-04-02T02:58:32.000Z,1438.0
2023-04-02T02:59:31.000Z,1458.0
2023-04-02T03:00:32.000Z,1437.0
2023-04-02T03:01:31.000Z,1512.0
2023-04-02T03:02:31.000Z,1429.0
2023-04-02T03:03:32.000Z,1533.0
2023-04-02T03:04:31.000Z,1601.0
2023-04-02T03:05:32.000Z,1569.0
2023-04-02T03:06:32.000Z,1587.0
2023-04-02T03:07:31.000Z,1575.0
2023-04-02T03:08:32.000Z,1496.0
2023-04-02T03:09:31.000Z,1526.0
2023-04-02T03:10:32.000Z,1551.0
2023-04-02T03:11:32.000Z,1602.0
2023-04-02T03:12:31.000Z,1601.0
2023-04-02T03:13:32.000Z,1626.0
2023-04-02T03:14:31.000Z,1515.0
2023-04-02T03:15:31.000Z,1574.0
2023-04-02T03:16:32.000Z,1623.0
2023-04-02T03:17:31.000Z,1639.0
2023-04-02T03:18:32.000Z,1630.0
2023-04-02T03:19:32.000Z,1617.0
2023-04-02T03:20:31.000Z,1617.0
2023-04-02T03:21:32.000Z,1467.0
2023-04-02T03:22:31.000Z,1506.0
2023-04-02T03:23:32.000Z,1570.0
2023-04-02T03:24:32.000Z,1510.0
2023-04-02T03:25:31.000Z,1511.0
2023-04-02T03:26:32.000Z,1491.0
2023-04-02T03:27:31.000Z,1452.0
2023-04-02T03:28:31.000Z,1435.0
2023-04-02T03:29:32.000Z,1539.0
2023-04-02T03:30:31.000Z,1556.0
2023-04-02T03:31:32.000Z,1356.0
2023-04-02T03:32:32.000Z,1431.0
2023-04-02T03:33:31.000Z,1462.0
2023-04-02T03:34:32.000Z,1455.0
2023-04-02T03:35:31.000Z,1498.0
2023-04-02T03:36:31.000Z,1548.0
2023-04-02T03:37:32.000Z,1588.0
2023-04-02T03:38:31.000Z,1584.0
2023-04-02T03:39:32.000Z,1585.0
2023-04-02T03:40:31.000Z,1472.0
2023-04-02T03:41:31.000Z,1479.0
2023-04-02T03:42:32.000Z,1517.0
2023-04-02T03:43:32.000Z,1442.0
2023-04-02T03:44:31.000Z,1481.0
2023-04-02T03:45:32.000Z,1498.0
2023-04-02T03:46:31.000Z,1559.0
2023-04-02T03:47:31.000Z,1590.0
2023-04-02T03:48:32.000Z,1546.0
2023-04-02T03:49:31.000Z,1480.0
2023-04-02T03:50:32.000Z,1430.0
2023-04-02T03:51:32.000Z,1453.0
2023-04-02T03:52:31.000Z,1534.0
2023-04-02T03:53:32.000Z,1576.0
2023-04-02T03:54:31.000Z,1453.0
2023-04-02T03:55:32.000Z,1366.0
2023-04-02T03:56:32.000Z,1474.0
2023-04-02T03:57:31.000Z,1478.0
2023-04-02T03:58:32.000Z,1400.0
2023-04-02T03:59:31.000Z,1416.0
2023-04-02T04:00:31.000Z,1473.0
2023-04-02T04:01:32.000Z,1432.0
2023-04-02T04:02:31.000Z,1428.0
2023-04-02T04:03:32.000Z,1453.0
2023-04-02T04:04:32.000Z,1485.0
2023-04-02T04:05:31.000Z,1523.0
2023-04-02T04:06:32.000Z,1553.0
2023-04-02T04:07:31.000Z,1530.0
2023-04-02T04:08:32.000Z,1549.0
2023-04-02T04:09:32.000Z,1493.0
2023-04-02T04:10:31.000Z,1492.0
2023-04-02T04:11:32.000Z,1533.0
2023-04-02T04:12:31.000Z,1507.0
2023-04-02T04:13:31.000Z,1378.0
2023-04-02T04:14:32.000Z,1437.0
2023-04-02T04:15:31.000Z,1452.0
2023-04-02T04:16:32.000Z,1443.0
2023-04-02T04:17:32.000Z,1437.0
2023-04-02T04:18:31.000Z,1433.0
2023-04-02T04:19:32.000Z,1429.0
2023-04-02T04:20:31.000Z,1421.0
2023-04-02T04:21:32.000Z,1393.0
2023-04-02T04:22:32.000Z,1477.0
2023-04-02T04:23:31.000Z,1523.0
2023-04-02T04:24:32.000Z,1376.0
2023-04-02T04:25:31.000Z,1345.0
2023-04-02T04:26:31.000Z,1343.0
2023-04-02T04:27:32.000Z,1446.0
2023-04-02T04:28:31.000Z,1511.0
2023-04-02T04:29:32.000Z,1496.0
2023-04-02T04:30:32.000Z,1467.0
2023-04-02T04:31:31.000Z,1468.0
2023-04-02T04:32:32.000Z,1473.0
2023-04-02T04:33:31.000Z,1400.0
2023-04-02T04:34:32.000Z,1506.0
2023-04-02T04:35:32.000Z,1565.0
2023-04-02T04:36:31.000Z,1577.0
2023-04-02T04:37:32.000Z,1554.0
2023-04-02T04:38:31.000Z,1542.0
2023-04-02T04:39:31.000Z,1335.0
2023-04-02T04:40:32.000Z,1401.0
2023-04-02T04:41:31.000Z,1440.0
2023-04-02T04:42:32.000Z,1430.0
2023-04-02T04:43:32.000Z,1429.0
2023-04-02T04:44:31.000Z,1453.0
2023-04-02T04:45:32.000Z,1483.0
2023-04-02T04:46:32.000Z,1518.0
2023-04-02T04:47:31.000Z,1563.0
2023-04-02T04:48:32.000Z,1595.0
2023-04-02T04:49:31.000Z,1581.0
2023-04-02T04:50:31.000Z,1550.0
2023-04-02T04:51:32.000Z,1567.0
2023-04-02T04:52:31.000Z,1498.0
2023-04-02T04:53:32.000Z,1532.0
2023-04-02T04:54:32.000Z,1529.0
2023-04-02T04:55:31.000Z,1538.0
2023-04-02T04:56:32.000Z,1523.0
2023-04-02T04:57:31.000Z,1566.0
2023-04-02T04:58:31.000Z,1523.0
2023-04-02T04:59:32.000Z,1528.0
2023-04-02T05:00:31.000Z,1590.0
2023-04-02T05:01:32.000Z,1572.0
2023-04-02T05:02:32.000Z,1552.0
2023-04-02T05:03:31.000Z,1609.0
2023-04-02T05:04:32.000Z,1637.0
2023-04-02T05:05:31.000Z,1657.0
2023-04-02T05:06:32.000Z,1598.0
2023-04-02T05:07:32.000Z,1598.0
2023-04-02T05:08:31.000Z,1628.0
2023-04-02T05:09:32.000Z,1510.0
2023-04-02T05:10:31.000Z,1447.0
2023-04-02T05:11:31.000Z,1420.0
2023-04-02T05:12:32.000Z,1472.0
2023-04-02T05:13:31.000Z,1543.0
2023-04-02T05:14:32.000Z,1533.0
2023-04-02T05:15:32.000Z,1565.0
2023-04-02T05:16:31.000Z,1576.0
2023-04-02T05:17:32.000Z,1558.0
2023-04-02T05:18:31.000Z,1597.0
2023-04-02T05:19:32.000Z,1448.0
2023-04-02T05:20:32.000Z,1373.0
2023-04-02T05:21:31.000Z,1397.0
2023-04-02T05:22:32.000Z,1324.0
2023-04-02T05:23:31.000Z,1397.0
2023-04-02T05:24:31.000Z,1437.0
2023-04-02T05:25:32.000Z,1378.0
2023-04-02T05:26:31.000Z,1451.0
2023-04-02T05:27:32.000Z,1459.0
2023-04-02T05:28:32.000Z,1372.0
2023-04-02T05:29:31.000Z,1382.0
2023-04-02T05:30:32.000Z,1257.0
2023-04-02T05:31:31.000Z,1189.0
2023-04-02T05:32:31.000Z,1167.0
2023-04-02T05:33:32.000Z,1264.0
2023-04-02T05:34:31.000Z,1305.0
2023-04-02T05:35:32.000Z,1404.0
2023-04-02T05:36:31.000Z,1481.0
2023-04-02T05:37:31.000Z,1405.0
2023-04-02T05:38:32.000Z,1430.0
2023-04-02T05:39:31.000Z,1424.0
2023-04-02T05:40:32.000Z,1264.0
2023-04-02T05:41:32.000Z,1346.0
2023-04-02T05:42:31.000Z,1466.0
2023-04-02T05:43:32.000Z,1405.0
2023-04-02T05:44:32.000Z,1462.0
2023-04-02T05:45:31.000Z,1499.0
2023-04-02T05:46:32.000Z,1499.0
2023-04-02T05:47:31.000Z,1369.0
2023-04-02T05:48:31.000Z,1365.0
2023-04-02T05:49:32.000Z,1435.0
2023-04-02T05:50:31.000Z,1369.0
2023-04-02T05:51:32.000Z,1277.0
2023-04-02T05:52:32.000Z,1332.0
2023-04-02T05:53:31.000Z,1357.0
2023-04-02T05:54:32.000Z,1408.0
2023-04-02T05:55:31.000Z,1390.0
2023-04-02T05:56:32.000Z,1468.0
2023-04-02T05:57:32.000Z,1479.0
2023-04-02T05:58:31.000Z,1496.0
2023-04-02T05:59:32.000Z,1303.0
2023-04-02T06:00:31.000Z,1191.0
2023-04-02T06:01:31.000Z,1349.0
2023-04-02T06:02:32.000Z,1426.0
2023-04-02T06:03:31.000Z,1529.0
2023-04-02T06:04:32.000Z,1491.0
2023-04-02T06:05:32.000Z,1420.0
2023-04-02T06:06:31.000Z,1392.0
2023-04-02T06:07:32.000Z,1427.0
2023-04-02T06:08:31.000Z,1471.0
2023-04-02T06:09:31.000Z,1495.0
2023-04-02T06:10:32.000Z,1444.0
2023-04-02T06:11:31.000Z,1446.0
2023-04-02T06:12:32.000Z,1494.0
2023-04-02T06:13:31.000Z,1526.0
2023-04-02T06:14:31.000Z,1526.0
2023-04-02T06:15:32.000Z,1567.0
2023-04-02T06:16:31.000Z,1593.0
2023-04-02T06:17:32.000Z,1472.0
2023-04-02T06:18:32.000Z,1480.0
2023-04-02T06:19:31.000Z,1405.0
2023-04-02T06:20:32.000Z,1379.0
2023-04-02T06:21:31.000Z,1241.0
2023-04-02T06:22:31.000Z,1307.0
2023-04-02T06:23:32.000Z,1236.0
2023-04-02T06:24:31.000Z,1262.0
2023-04-02T06:25:32.000Z,1238.0
2023-04-02T06:26:32.000Z,1175.0
2023-04-02T06:27:31.000Z,1280.0
2023-04-02T06:28:32.000Z,1288.0
2023-04-02T06:29:31.000Z,1232.0
2023-04-02T06:30:32.000Z,1213.0
2023-04-02T06:31:32.000Z,1204.0
2023-04-02T06:32:31.000Z,1237.0
2023-04-02T06:33:32.000Z,1213.0
2023-04-02T06:34:31.000Z,1223.0
2023-04-02T06:35:31.000Z,1144.0
2023-04-02T06:36:32.000Z,1201.0
2023-04-02T06:37:31.000Z,1260.0
2023-04-02T06:38:32.000Z,1202.0
2023-04-02T06:39:32.000Z,1139.0
2023-04-02T06:40:31.000Z,1230.0
2023-04-02T06:41:32.000Z,1354.0
2023-04-02T06:42:31.000Z,1422.0
2023-04-02T06:43:31.000Z,1395.0
2023-04-02T06:44:32.000Z,1281.0
2023-04-02T06:45:31.000Z,1322.0
2023-04-02T06:46:32.000Z,1295.0
2023-04-02T06:47:31.000Z,1216.0
2023-04-02T06:48:31.000Z,1337.0
2023-04-02T06:49:32.000Z,1298.0
2023-04-02T06:50:31.000Z,1248.0
2023-04-02T06:51:32.000Z,1223.0
2023-04-02T06:52:32.000Z,1344.0
2023-04-02T06:53:31.000Z,1381.0
2023-04-02T06:54:32.000Z,1468.0
2023-04-02T06:55:31.000Z,1462.0
2023-04-02T06:56:32.000Z,1343.0
2023-04-02T06:57:32.000Z,1375.0
2023-04-02T06:58:31.000Z,1305.0
2023-04-02T06:59:32.000Z,1257.0
2023-04-02T07:00:31.000Z,1319.0
2023-04-02T07:01:31.000Z,1240.0
2023-04-02T07:02:32.000Z,1215.0
2023-04-02T07:03:31.000Z,1295.0
2023-04-02T07:04:32.000Z,1234.0
2023-04-02T07:05:32.000Z,1169.0
2023-04-02T07:06:31.000Z,1145.0
2023-04-02T07:07:32.000Z,1188.0
2023-04-02T07:08:31.000Z,1150.0
2023-04-02T07:09:31.000Z,1106.0
2023-04-02T07:10:32.000Z,1106.0
2023-04-02T07:11:31.000Z,1072.0
2023-04-02T07:12:32.000Z,1151.0
2023-04-02T07:13:31.000Z,1229.0
2023-04-02T07:14:31.000Z,1308.0
2023-04-02T07:15:32.000Z,1396.0
2023-04-02T07:16:31.000Z,1403.0
2023-04-02T07:17:32.000Z,1276.0
2023-04-02T07:18:32.000Z,1325.0
2023-04-02T07:19:31.000Z,1262.0
2023-04-02T07:20:32.000Z,1332.0
2023-04-02T07:21:31.000Z,1420.0
2023-04-02T07:22:32.000Z,1407.0
2023-04-02T07:23:32.000Z,1313.0
2023-04-02T07:24:31.000Z,1265.0
2023-04-02T07:25:32.000Z,1187.0
2023-04-02T07:26:32.000Z,1159.0
2023-04-02T07:27:31.000Z,1173.0
2023-04-02T07:28:32.000Z,1158.0
2023-04-02T07:29:31.000Z,1206.0
2023-04-02T07:30:32.000Z,1264.0
2023-04-02T07:31:32.000Z,1310.0
2023-04-02T07:32:31.000Z,1364.0
2023-04-02T07:33:32.000Z,1421.0
2023-04-02T07:34:31.000Z,1496.0
2023-04-02T07:35:31.000Z,1487.0
2023-04-02T07:36:32.000Z,1449.0
2023-04-02T07:37:31.000Z,1428.0
2023-04-02T07:38:32.000Z,1485.0
2023-04-02T07:39:31.000Z,1438.0
2023-04-02T07:40:31.000Z,1431.0
2023-04-02T07:41:32.000Z,1476.0
2023-04-02T07:42:31.000Z,1496.0
2023-04-02T07:43:31.000Z,1514.0
2023-04-02T07:44:32.000Z,1418.0
2023-04-02T07:45:31.000Z,1309.0
2023-04-02T07:46:32.000Z,1268.0
2023-04-02T07:47:32.000Z,1175.0
2023-04-02T07:48:31.000Z,1155.0
2023-04-02T07:49:32.000Z,1163.0
2023-04-02T07:50:31.000Z,1149.0
2023-04-02T07:51:31.000Z,1173.0
2023-04-02T07:52:32.000Z,1156.0
2023-04-02T07:53:31.000Z,1264.0
2023-04-02T07:54:32.000Z,1353.0
2023-04-02T07:55:32.000Z,1302.0
2023-04-02T07:56:31.000Z,1386.0
2023-04-02T07:57:32.000Z,1455.0
2023-04-02T07:58:31.000Z,1435.0
2023-04-02T07:59:31.000Z,1420.0
2023-04-02T08:00:32.000Z,1509.0
2023-04-02T08:01:31.000Z,1324.0
2023-04-02T08:02:32.000Z,1342.0
2023-04-02T08:03:32.000Z,1279.0
2023-04-02T08:04:31.000Z,1255.0
2023-04-02T08:05:32.000Z,1357.0
2023-04-02T08:06:31.000Z,1316.0
2023-04-02T08:07:32.000Z,1263.0
2023-04-02T08:08:32.000Z,1194.0
2023-04-02T08:09:31.000Z,1265.0
2023-04-02T08:10:32.000Z,1303.0
2023-04-02T08:11:31.000Z,1260.0
2023-04-02T08:12:31.000Z,1193.0
2023-04-02T08:13:32.000Z,1276.0
2023-04-02T08:14:31.000Z,1265.0
2023-04-02T08:15:32.000Z,1268.0
2023-04-02T08:16:32.000Z,1218.0
2023-04-02T08:17:31.000Z,1181.0
2023-04-02T08:18:32.000Z,1234.0
2023-04-02T08:19:31.000Z,1251.0
2023-04-02T08:20:32.000Z,1178.0
2023-04-02T08:21:32.000Z,1195.0
2023-04-02T08:22:31.000Z,1112.0
2023-04-02T08:23:32.000Z,1112.0
2023-04-02T08:24:31.000Z,1171.0
2023-04-02T08:25:31.000Z,1298.0
2023-04-02T08:26:32.000Z,1257.0
2023-04-02T08:27:31.000Z,1298.0
2023-04-02T08:28:32.000Z,1303.0
2023-04-02T08:29:32.000Z,1255.0
2023-04-02T08:30:31.000Z,1249.0
2023-04-02T08:31:32.000Z,1184.0
2023-04-02T08:32:31.000Z,1216.0
2023-04-02T08:33:32.000Z,1317.0
2023-04-02T08:34:32.000Z,1266.0
2023-04-02T08:35:31.000Z,1206.0
2023-04-02T08:36:32.000Z,1205.0
2023-04-02T08:37:31.000Z,1210.0
2023-04-02T08:38:31.000Z,1188.0
2023-04-02T08:39:32.000Z,1203.0
2023-04-02T08:40:31.000Z,1144.0
2023-04-02T08:41:32.000Z,1309.0
2023-04-02T08:42:32.000Z,1331.0
2023-04-02T08:43:31.000Z,1213.0
2023-04-02T08:44:32.000Z,1296.0
2023-04-02T08:45:32.000Z,1361.0
2023-04-02T08:46:31.000Z,1331.0
2023-04-02T08:47:32.000Z,1331.0
2023-04-02T08:48:31.000Z,1341.0
2023-04-02T08:49:31.000Z,1395.0
2023-04-02T08:50:32.000Z,1473.0
2023-04-02T08:51:31.000Z,1463.0
2023-04-02T08:52:32.000Z,1451.0
2023-04-02T08:53:32.000Z,1431.0
2023-04-02T08:54:31.000Z,1355.0
2023-04-02T08:55:32.000Z,1311.0
2023-04-02T08:56:31.000Z,1319.0
2023-04-02T08:57:31.000Z,1261.0
2023-04-02T08:58:32.000Z,1313.0
2023-04-02T08:59:31.000Z,1306.0
2023-04-02T09:00:32.000Z,1321.0
2023-04-02T09:01:32.000Z,1267.0
2023-04-02T09:02:31.000Z,1332.0
2023-04-02T09:03:32.000Z,1430.0
2023-04-02T09:04:31.000Z,1318.0
2023-04-02T09:05:32.000Z,1385.0
2023-04-02T09:06:32.000Z,1484.0
2023-04-02T09:07:31.000Z,1343.0
2023-04-02T09:08:32.000Z,1199.0
2023-04-02T09:09:31.000Z,1276.0
2023-04-02T09:10:31.000Z,1236.0
2023-04-02T09:11:32.000Z,1295.0
2023-04-02T09:12:31.000Z,1243.0
2023-04-02T09:13:32.000Z,1248.0
2023-04-02T09:14:32.000Z,1341.0
2023-04-02T09:15:31.000Z,1429.0
2023-04-02T09:16:32.000Z,1472.0
2023-04-02T09:17:31.000Z,1340.0
2023-04-02T09:18:32.000Z,1399.0
2023-04-02T09:19:32.000Z,1387.0
2023-04-02T09:20:31.000Z,1373.0
2023-04-02T09:21:32.000Z,1293.0
2023-04-02T09:22:31.000Z,1337.0
2023-04-02T09:23:31.000Z,1329.0
2023-04-02T09:24:32.000Z,1288.0
2023-04-02T09:25:31.000Z,1344.0
2023-04-02T09:26:32.000Z,1235.0
2023-04-02T09:27:32.000Z,1239.0
2023-04-02T09:28:31.000Z,1229.0
2023-04-02T09:29:32.000Z,1194.0
2023-04-02T09:30:31.000Z,1225.0
2023-04-02T09:31:32.000Z,1218.0
2023-04-02T09:32:32.000Z,1213.0
2023-04-02T09:33:31.000Z,1150.0
2023-04-02T09:34:32.000Z,1215.0
2023-04-02T09:35:31.000Z,1216.0
2023-04-02T09:36:31.000Z,1244.0
2023-04-02T09:37:32.000Z,1158.0
2023-04-02T09:38:31.000Z,1233.0
2023-04-02T09:39:32.000Z,1330.0
2023-04-02T09:40:32.000Z,1413.0
2023-04-02T09:41:31.000Z,1360.0
2023-04-02T09:42:32.000Z,1340.0
2023-04-02T09:43:32.000Z,1279.0
2023-04-02T09:44:31.000Z,1376.0
2023-04-02T09:45:32.000Z,1373.0
2023-04-02T09:46:31.000Z,1332.0
2023-04-02T09:47:31.000Z,1283.0
2023-04-02T09:48:32.000Z,1190.0
2023-04-02T09:49:31.000Z,1219.0
2023-04-02T09:50:32.000Z,1189.0
2023-04-02T09:51:32.000Z,1252.0
2023-04-02T09:52:31.000Z,1351.0
2023-04-02T09:53:32.000Z,1354.0
2023-04-02T09:54:31.000Z,1392.0
2023-04-02T09:55:31.000Z,1428.0
2023-04-02T09:56:32.000Z,1357.0
2023-04-02T09:57:31.000Z,1245.0
2023-04-02T09:58:32.000Z,1254.0
2023-04-02T09:59:32.000Z,1355.0
2023-04-02T10:00:31.000Z,1316.0
2023-04-02T10:02:31.000Z,1436.0
2023-04-02T10:03:32.000Z,1427.0
2023-04-02T10:04:32.000Z,1458.0
2023-04-02T10:05:31.000Z,1427.0
2023-04-02T10:07:31.000Z,1394.0
2023-04-02T10:08:31.000Z,1310.0
2023-04-02T10:09:32.000Z,1333.0
2023-04-02T10:10:31.000Z,1279.0
2023-04-02T10:11:32.000Z,1235.0
2023-04-02T10:12:32.000Z,1289.0
2023-04-02T10:13:31.000Z,1254.0
2023-04-02T10:14:32.000Z,1204.0
2023-04-02T10:15:31.000Z,1102.0
2023-04-02T10:16:32.000Z,1156.0
2023-04-02T10:17:32.000Z,1134.0
2023-04-02T10:18:31.000Z,1242.0
2023-04-02T10:19:32.000Z,1139.0
2023-04-02T10:20:31.000Z,1203.0
2023-04-02T10:21:31.000Z,1224.0
2023-04-02T10:22:32.000Z,1321.0
2023-04-02T10:23:31.000Z,1318.0
2023-04-02T10:24:32.000Z,1330.0
2023-04-02T10:25:32.000Z,1244.0
2023-04-02T10:26:31.000Z,1291.0
2023-04-02T10:27:32.000Z,1207.0
2023-04-02T10:28:31.000Z,1174.0
2023-04-02T10:29:32.000Z,1121.0
2023-04-02T10:30:32.000Z,1129.0
2023-04-02T10:31:31.000Z,1178.0
2023-04-02T10:32:32.000Z,1137.0
2023-04-02T10:33:31.000Z,1123.0
2023-04-02T10:34:31.000Z,1132.0
2023-04-02T10:35:32.000Z,1169.0
2023-04-02T10:36:31.000Z,1270.0
2023-04-02T10:37:32.000Z,1314.0
2023-04-02T10:38:32.000Z,1309.0
2023-04-02T10:39:31.000Z,1247.0
2023-04-02T10:40:32.000Z,1344.0
2023-04-02T10:41:31.000Z,1388.0
2023-04-02T10:42:32.000Z,1437.0
2023-04-02T10:43:32.000Z,1456.0
2023-04-02T10:44:31.000Z,1413.0
2023-04-02T10:45:32.000Z,1400.0
2023-04-02T10:46:32.000Z,1410.0
2023-04-02T10:47:31.000Z,1435.0
2023-04-02T10:48:32.000Z,1364.0
2023-04-02T10:49:31.000Z,1364.0
2023-04-02T10:50:31.000Z,1389.0
2023-04-02T10:51:32.000Z,1421.0
2023-04-02T10:52:31.000Z,1443.0
2023-04-02T10:53:32.000Z,1434.0
2023-04-02T10:54:32.000Z,1446.0
2023-04-02T10:55:31.000Z,1489.0
2023-04-02T10:56:32.000Z,1469.0
2023-04-02T10:57:31.000Z,1411.0
2023-04-02T10:58:31.000Z,1381.0
2023-04-02T10:59:32.000Z,1374.0
2023-04-02T11:00:31.000Z,1360.0
2023-04-02T11:01:32.000Z,1308.0
2023-04-02T11:02:32.000Z,1195.0
2023-04-02T11:03:31.000Z,1274.0
2023-04-02T11:04:32.000Z,1388.0
2023-04-02T11:05:31.000Z,1445.0
2023-04-02T11:06:32.000Z,1369.0
2023-04-02T11:07:32.000Z,1427.0
2023-04-02T11:08:31.000Z,1447.0
2023-04-02T11:09:32.000Z,1467.0
2023-04-02T11:10:31.000Z,1528.0
2023-04-02T11:11:31.000Z,1527.0
2023-04-02T11:12:32.000Z,1512.0
2023-04-02T11:13:31.000Z,1381.0
2023-04-02T11:14:32.000Z,1313.0
2023-04-02T11:15:32.000Z,1360.0
2023-04-02T11:16:31.000Z,1434.0
2023-04-02T11:17:32.000Z,1427.0
2023-04-02T11:18:31.000Z,1248.0
2023-04-02T11:19:32.000Z,1244.0
2023-04-02T11:20:32.000Z,1196.0
2023-04-02T11:21:31.000Z,1199.0
2023-04-02T11:22:32.000Z,1210.0
2023-04-02T11:23:31.000Z,1245.0
2023-04-02T11:24:31.000Z,1307.0
2023-04-02T11:25:32.000Z,1363.0
2023-04-02T11:26:31.000Z,1479.0
2023-04-02T11:27:32.000Z,1565.0
2023-04-02T11:28:32.000Z,1534.0
2023-04-02T11:29:31.000Z,1481.0
2023-04-02T11:30:32.000Z,1526.0
2023-04-02T11:31:31.000Z,1567.0
2023-04-02T11:32:31.000Z,1589.0
2023-04-02T11:33:32.000Z,1553.0
2023-04-02T11:34:31.000Z,1538.0
2023-04-02T11:35:32.000Z,1526.0
2023-04-02T11:36:31.000Z,1546.0
2023-04-02T11:37:31.000Z,1515.0
2023-04-02T11:38:32.000Z,1455.0
2023-04-02T11:39:31.000Z,1461.0
2023-04-02T11:40:32.000Z,1405.0
2023-04-02T11:41:32.000Z,1303.0
2023-04-02T11:42:31.000Z,1298.0
2023-04-02T11:43:32.000Z,1324.0
2023-04-02T11:44:32.000Z,1313.0
2023-04-02T11:45:31.000Z,1359.0
2023-04-02T11:46:32.000Z,1342.0
2023-04-02T11:47:31.000Z,1360.0
2023-04-02T11:48:31.000Z,1323.0
2023-04-02T11:49:32.000Z,1411.0
2023-04-02T11:50:31.000Z,1326.0
2023-04-02T11:51:32.000Z,1299.0
2023-04-02T11:52:32.000Z,1339.0
2023-04-02T11:53:31.000Z,1396.0
2023-04-02T11:54:32.000Z,1361.0
2023-04-02T11:55:31.000Z,1293.0
2023-04-02T11:56:32.000Z,1329.0
2023-04-02T11:57:32.000Z,1428.0
2023-04-02T11:58:31.000Z,1351.0
2023-04-02T11:59:32.000Z,1331.0
2023-04-02T12:00:31.000Z,1305.0
2023-04-02T12:01:31.000Z,1329.0
2023-04-02T12:02:32.000Z,1382.0
2023-04-02T12:03:31.000Z,1419.0
2023-04-02T12:04:32.000Z,1394.0
2023-04-02T12:05:32.000Z,1449.0
2023-04-02T12:06:31.000Z,1443.0
2023-04-02T12:07:32.000Z,1527.0
2023-04-02T12:08:31.000Z,1424.0
2023-04-02T12:09:31.000Z,1439.0
2023-04-02T12:10:32.000Z,1533.0
2023-04-02T12:11:31.000Z,1672.0
2023-04-02T12:12:32.000Z,1632.0
2023-04-02T12:13:31.000Z,1603.0
2023-04-02T12:14:31.000Z,1703.0
2023-04-02T12:15:32.000Z,1755.0
2023-04-02T12:16:31.000Z,1770.0
2023-04-02T12:17:32.000Z,1703.0
2023-04-02T12:18:32.000Z,1683.0
2023-04-02T12:19:31.000Z,1657.0
2023-04-02T12:20:32.000Z,1675.0
2023-04-02T12:21:31.000Z,1569.0
2023-04-02T12:22:31.000Z,1608.0
2023-04-02T12:23:32.000Z,1600.0
2023-04-02T12:24:31.000Z,1623.0
2023-04-02T12:25:32.000Z,1637.0
2023-04-02T12:26:32.000Z,1641.0
2023-04-02T12:27:31.000Z,1734.0
2023-04-02T12:28:32.000Z,1773.0
2023-04-02T12:29:31.000Z,1745.0
2023-04-02T12:30:32.000Z,1717.0
2023-04-02T12:31:32.000Z,1616.0